createdAt,value
2023-04-28T00:02:25.794Z,10.00
2023-04-28T00:04:54.627Z,10.03
2023-04-28T00:07:23.495Z,10.16
2023-04-28T00:09:50.959Z,10.13
2023-04-28T00:12:18.416Z,9.97
2023-04-28T00:14:45.885Z,9.86
2023-04-28T00:17:13.302Z,10.04
2023-04-28T00:19:40.746Z,9.98
2023-04-28T00:22:08.746Z,9.94
2023-04-28T00:24:37.491Z,9.77
2023-04-28T00:27:04.897Z,9.75
2023-04-28T00:29:32.309Z,9.82
2023-04-28T00:31:59.735Z,9.84
2023-04-28T00:34:27.151Z,9.67
2023-04-28T00:36:54.557Z,9.64
2023-04-28T00:39:22.995Z,9.79
2023-04-28T00:41:51.718Z,9.68
2023-04-28T00:44:19.161Z,9.71
2023-04-28T00:46:47.792Z,9.69
2023-04-28T00:49:16.589Z,9.67
2023-04-28T00:51:44.132Z,9.58
2023-04-28T00:54:14.824Z,9.73
2023-04-28T00:56:43.028Z,9.76
2023-04-28T00:59:11.787Z,9.70
2023-04-28T01:01:39.414Z,9.67
2023-04-28T01:04:07.082Z,9.59
2023-04-28T01:06:35.288Z,9.54
2023-04-28T01:09:02.682Z,9.58
2023-04-28T01:11:30.082Z,9.67
2023-04-28T01:13:59.422Z,9.64
2023-04-28T01:16:28.313Z,9.62
2023-04-28T01:18:56.116Z,9.71
2023-04-28T01:21:29.043Z,9.74
2023-04-28T01:23:57.899Z,9.65
2023-04-28T01:26:25.526Z,9.71
2023-04-28T01:28:52.986Z,9.50
2023-04-28T01:31:21.187Z,9.41
2023-04-28T01:33:48.623Z,9.55
2023-04-28T01:36:16.087Z,9.63
2023-04-28T01:38:43.523Z,9.42
2023-04-28T01:41:12.297Z,9.60
2023-04-28T01:43:39.669Z,9.64
2023-04-28T01:46:07.159Z,9.38
2023-04-28T01:48:34.681Z,9.54
2023-04-28T01:51:02.266Z,9.50
2023-04-28T01:53:29.653Z,9.59
2023-04-28T01:55:58.535Z,9.57
2023-04-28T01:58:27.346Z,9.40
2023-04-28T02:00:54.772Z,9.39
2023-04-28T02:03:22.485Z,9.48
2023-04-28T02:05:50.116Z,9.51
2023-04-28T02:08:17.576Z,9.62
2023-04-28T02:10:45.069Z,9.63
2023-04-28T02:13:12.823Z,9.65
2023-04-28T02:15:42.443Z,9.69
2023-04-28T02:18:09.994Z,9.57
2023-04-28T02:20:37.431Z,9.57
2023-04-28T02:23:04.888Z,9.65
2023-04-28T02:25:32.282Z,9.79
2023-04-28T02:28:00.160Z,9.78
2023-04-28T02:30:27.555Z,9.99
2023-04-28T02:32:56.290Z,10.00
2023-04-28T02:35:23.733Z,9.88
2023-04-28T02:37:51.222Z,9.64
2023-04-28T02:40:19.282Z,9.52
2023-04-28T02:42:46.685Z,9.75
2023-04-28T02:45:14.128Z,9.60
2023-04-28T02:47:41.644Z,9.64
2023-04-28T02:50:11.534Z,9.55
2023-04-28T02:52:38.952Z,9.74
2023-04-28T02:55:07.382Z,9.77
2023-04-28T02:57:34.816Z,9.85
2023-04-28T03:00:02.245Z,9.91
2023-04-28T03:02:29.708Z,9.66
2023-04-28T03:04:57.236Z,9.93
2023-04-28T03:07:26.112Z,9.68
2023-04-28T03:09:53.485Z,9.88
2023-04-28T03:12:20.915Z,9.69
2023-04-28T03:14:48.291Z,9.68
2023-04-28T03:17:15.733Z,9.88
2023-04-28T03:19:43.128Z,9.86
2023-04-28T03:22:10.529Z,10.05
2023-04-28T03:24:39.221Z,9.79
2023-04-28T03:27:06.843Z,9.96
2023-04-28T03:29:34.234Z,9.77
2023-04-28T03:32:02.205Z,9.66
2023-04-28T03:34:29.652Z,9.80
2023-04-28T03:36:57.050Z,10.02
2023-04-28T03:39:24.485Z,9.85
2023-04-28T03:41:53.190Z,10.16
2023-04-28T03:44:20.928Z,10.19
2023-04-28T03:46:48.733Z,10.15
2023-04-28T03:49:16.279Z,10.32
2023-04-28T03:51:43.743Z,10.46
2023-04-28T03:54:11.144Z,10.36
2023-04-28T03:56:38.648Z,10.27
2023-04-28T03:59:07.424Z,10.51
2023-04-28T04:01:34.795Z,10.31
2023-04-28T04:04:02.531Z,10.44
2023-04-28T04:06:30.794Z,10.31
2023-04-28T04:08:58.378Z,10.63
2023-04-28T04:11:26.001Z,10.80
2023-04-28T04:13:53.409Z,10.45
2023-04-28T04:16:22.697Z,10.64
2023-04-28T04:18:50.310Z,10.40
2023-04-28T04:21:17.699Z,11.05
2023-04-28T04:23:45.106Z,11.15
2023-04-28T04:26:12.502Z,11.32
2023-04-28T04:28:39.937Z,11.53
2023-04-28T04:33:37.915Z,11.32
2023-04-28T04:36:06.347Z,11.27
2023-04-28T04:38:33.752Z,11.53
2023-04-28T04:41:01.337Z,11.19
2023-04-28T04:43:28.775Z,11.17
2023-04-28T04:45:56.296Z,11.49
2023-04-28T04:48:23.732Z,11.56
2023-04-28T04:50:52.459Z,11.06
2023-04-28T04:53:20.128Z,10.92
2023-04-28T04:55:47.569Z,11.32
2023-04-28T04:58:15.084Z,10.99
2023-04-28T05:00:42.477Z,11.87
2023-04-28T05:03:10.007Z,11.83
2023-04-28T05:05:37.504Z,11.57
2023-04-28T05:08:06.346Z,12.05
2023-04-28T05:10:33.967Z,12.31
2023-04-28T05:13:01.407Z,12.45
2023-04-28T05:15:28.903Z,12.93
2023-04-28T05:17:59.763Z,12.14
2023-04-28T05:20:27.280Z,12.50
2023-04-28T05:22:54.730Z,11.81
2023-04-28T05:25:23.478Z,11.53
2023-04-28T05:27:50.929Z,11.82
2023-04-28T05:30:18.406Z,12.12
2023-04-28T05:32:45.854Z,13.51
2023-04-28T05:35:13.671Z,14.95
2023-04-28T05:37:43.541Z,17.36
2023-04-28T05:40:11.724Z,19.73
2023-04-28T05:42:40.651Z,20.45
2023-04-28T05:45:09.357Z,19.48
2023-04-28T05:47:36.940Z,19.86
2023-04-28T05:50:04.666Z,18.91
2023-04-28T05:52:32.122Z,17.65
2023-04-28T05:54:59.532Z,18.73
2023-04-28T05:57:27.350Z,16.72
2023-04-28T05:59:56.099Z,16.45
2023-04-28T06:02:24.551Z,16.52
2023-04-28T06:04:53.316Z,17.25
2023-04-28T06:07:21.454Z,15.89
2023-04-28T06:09:48.947Z,15.17
2023-04-28T06:12:16.339Z,14.83
2023-04-28T06:14:43.705Z,15.24
2023-04-28T06:17:12.465Z,12.19
2023-04-28T06:19:39.902Z,14.18
2023-04-28T06:22:07.304Z,15.54
2023-04-28T06:24:34.731Z,15.50
2023-04-28T06:27:02.718Z,15.51
2023-04-28T06:29:30.115Z,13.48
2023-04-28T06:31:58.223Z,14.03
2023-04-28T06:34:28.889Z,13.98
2023-04-28T06:36:56.664Z,13.91
2023-04-28T06:39:24.061Z,13.46
2023-04-28T06:41:51.472Z,13.08
2023-04-28T06:44:19.121Z,13.39
2023-04-28T06:46:46.848Z,13.63
2023-04-28T06:49:14.469Z,13.56
2023-04-28T06:51:43.272Z,13.52
2023-04-28T06:54:11.594Z,13.26
2023-04-28T06:56:39.060Z,12.89
2023-04-28T06:59:06.488Z,12.90
2023-04-28T07:01:33.878Z,12.56
2023-04-28T07:04:01.362Z,12.55
2023-04-28T07:06:29.762Z,12.83
2023-04-28T07:08:58.584Z,13.18
2023-04-28T07:11:26.237Z,12.80
2023-04-28T07:13:53.610Z,13.10
2023-04-28T07:16:21.461Z,13.18
2023-04-28T07:18:48.954Z,13.29
2023-04-28T07:21:16.388Z,13.31
2023-04-28T07:23:43.864Z,13.54
2023-04-28T07:26:16.225Z,13.22
2023-04-28T07:28:45.881Z,13.29
2023-04-28T07:31:13.301Z,13.88
2023-04-28T07:33:40.713Z,14.33
2023-04-28T07:36:08.636Z,13.43
2023-04-28T07:38:36.497Z,13.30
2023-04-28T07:41:05.700Z,13.03
2023-04-28T07:43:36.258Z,13.50
2023-04-28T07:46:03.814Z,14.18
2023-04-28T07:48:32.421Z,13.91
2023-04-28T07:50:59.872Z,13.87
2023-04-28T07:53:27.937Z,15.13
2023-04-28T07:55:55.504Z,15.86
2023-04-28T07:58:22.948Z,15.63
2023-04-28T08:00:51.751Z,14.98
2023-04-28T08:03:19.352Z,14.27
2023-04-28T08:05:47.229Z,15.42
2023-04-28T08:08:14.832Z,15.31
2023-04-28T08:10:43.906Z,15.42
2023-04-28T08:13:11.455Z,16.14
2023-04-28T08:15:38.934Z,16.54
2023-04-28T08:18:08.608Z,16.78
2023-04-28T08:20:36.176Z,17.06
2023-04-28T08:23:03.592Z,15.98
2023-04-28T08:25:31.049Z,15.38
2023-04-28T08:27:58.723Z,15.03
2023-04-28T08:30:26.218Z,16.29
2023-04-28T08:32:54.091Z,16.66
2023-04-28T08:35:22.963Z,14.68
2023-04-28T08:37:50.463Z,15.05
2023-04-28T08:40:17.954Z,15.10
2023-04-28T08:42:46.246Z,15.28
2023-04-28T08:45:15.130Z,15.15
2023-04-28T08:47:46.036Z,14.92
2023-04-28T08:50:15.290Z,14.67
2023-04-28T08:52:44.104Z,15.31
2023-04-28T08:55:13.596Z,15.66
2023-04-28T08:57:44.713Z,15.15
2023-04-28T09:00:13.358Z,15.49
2023-04-28T09:02:42.436Z,14.94
2023-04-28T09:05:11.756Z,15.15
2023-04-28T09:07:39.546Z,14.31
2023-04-28T09:10:19.474Z,15.58
2023-04-28T09:12:47.661Z,15.95
2023-04-28T09:15:27.678Z,15.59
2023-04-28T09:17:55.486Z,15.00
2023-04-28T09:20:24.280Z,15.96
2023-04-28T09:22:53.510Z,15.84
2023-04-28T09:25:23.586Z,16.07
2023-04-28T09:27:51.361Z,16.09
2023-04-28T09:30:20.141Z,15.72
2023-04-28T09:33:05.632Z,16.73
2023-04-28T09:35:43.464Z,15.64
2023-04-28T09:38:10.978Z,16.16
2023-04-28T09:40:55.644Z,16.17
2023-04-28T09:43:30.994Z,16.85
2023-04-28T09:46:00.718Z,16.08
2023-04-28T09:48:30.849Z,16.78
2023-04-28T09:50:59.341Z,16.98
2023-04-28T09:53:27.635Z,16.96
2023-04-28T09:55:58.157Z,17.26
2023-04-28T09:58:27.324Z,17.10
2023-04-28T10:00:56.597Z,17.45
2023-04-28T10:03:28.457Z,17.16
2023-04-28T10:05:58.228Z,17.49
2023-04-28T10:08:27.341Z,17.39
2023-04-28T10:10:56.917Z,16.93
2023-04-28T10:13:25.435Z,17.32
2023-04-28T10:15:55.231Z,16.91
2023-04-28T10:18:23.649Z,17.08
2023-04-28T10:20:56.556Z,17.95
2023-04-28T10:23:45.372Z,17.91
2023-04-28T10:26:16.411Z,17.36
2023-04-28T10:28:48.450Z,17.00
2023-04-28T10:31:17.559Z,17.01
2023-04-28T10:33:45.800Z,17.07
2023-04-28T10:36:49.087Z,17.86
2023-04-28T10:39:16.834Z,17.17
2023-04-28T10:41:46.508Z,16.32
2023-04-28T10:44:45.017Z,16.29
2023-04-28T10:47:12.576Z,17.01
2023-04-28T10:50:11.606Z,16.65
2023-04-28T10:52:51.785Z,16.77
2023-04-28T10:55:40.811Z,17.50
2023-04-28T10:58:36.165Z,18.02
2023-04-28T11:01:25.719Z,17.59
2023-04-28T11:04:00.303Z,17.26
2023-04-28T11:06:29.693Z,17.21
2023-04-28T11:09:00.373Z,17.70
2023-04-28T11:11:28.785Z,18.36
2023-04-28T11:14:33.845Z,18.39
2023-04-28T11:17:03.164Z,17.38
2023-04-28T11:19:33.128Z,18.07
2023-04-28T11:22:02.694Z,17.36
2023-04-28T11:24:31.584Z,18.81
2023-04-28T11:27:00.039Z,17.84
2023-04-28T11:29:36.245Z,17.62
2023-04-28T11:32:04.554Z,18.58
2023-04-28T11:34:32.650Z,18.46
2023-04-28T11:37:00.710Z,18.68
2023-04-28T11:39:30.077Z,18.89
2023-04-28T11:41:58.204Z,18.66
2023-04-28T11:44:27.457Z,18.78
2023-04-28T11:47:00.648Z,18.78
2023-04-28T11:49:30.162Z,18.17
2023-04-28T11:52:00.244Z,18.73
2023-04-28T11:54:29.239Z,19.18
2023-04-28T11:56:58.366Z,18.35
2023-04-28T11:59:27.399Z,19.40
2023-04-28T12:01:59.176Z,19.10
2023-04-28T12:04:32.936Z,19.49
2023-04-28T12:07:02.126Z,19.59
2023-04-28T12:09:30.075Z,19.44
2023-04-28T12:11:59.160Z,19.37
2023-04-28T12:14:26.923Z,19.58
2023-04-28T12:16:56.991Z,20.08
2023-04-28T12:19:24.442Z,19.98
2023-04-28T12:22:02.862Z,20.09
2023-04-28T12:24:30.852Z,19.36
2023-04-28T12:27:17.139Z,19.97
2023-04-28T12:29:46.580Z,19.38
2023-04-28T12:32:16.005Z,19.55
2023-04-28T12:34:43.957Z,19.84
2023-04-28T12:37:12.229Z,19.57
2023-04-28T12:39:42.376Z,19.43
2023-04-28T12:42:10.006Z,19.85
2023-04-28T12:44:38.404Z,19.75
2023-04-28T12:47:07.873Z,18.45
2023-04-28T12:49:36.848Z,19.77
2023-04-28T12:52:05.684Z,20.12
2023-04-28T12:54:33.253Z,19.59
2023-04-28T12:57:00.706Z,19.80
2023-04-28T12:59:28.855Z,19.70
2023-04-28T13:01:56.364Z,19.60
2023-04-28T13:04:24.577Z,19.76
2023-04-28T13:06:54.351Z,19.56
2023-04-28T13:09:21.854Z,19.34
2023-04-28T13:11:49.228Z,20.18
2023-04-28T13:14:16.821Z,18.41
2023-04-28T13:16:44.307Z,19.74
2023-04-28T13:19:14.609Z,20.45
2023-04-28T13:21:42.893Z,20.82
2023-04-28T13:24:11.791Z,19.08
2023-04-28T13:26:39.313Z,19.24
2023-04-28T13:29:08.272Z,19.72
2023-04-28T13:31:36.044Z,19.75
2023-04-28T13:34:05.203Z,18.57
2023-04-28T13:36:34.037Z,18.13
2023-04-28T13:39:02.650Z,19.18
2023-04-28T13:41:31.535Z,19.80
2023-04-28T13:43:58.921Z,20.21
2023-04-28T13:46:26.368Z,19.00
2023-04-28T13:48:53.761Z,19.28
2023-04-28T13:51:21.196Z,19.56
2023-04-28T13:53:48.549Z,20.12
2023-04-28T13:56:16.085Z,19.57
2023-04-28T13:58:44.832Z,18.35
2023-04-28T14:01:12.222Z,19.32
2023-04-28T14:03:40.579Z,19.38
2023-04-28T14:06:08.649Z,19.21
2023-04-28T14:08:36.657Z,18.79
2023-04-28T14:11:04.279Z,18.10
2023-04-28T14:13:31.822Z,18.85
2023-04-28T14:16:00.643Z,19.54
2023-04-28T14:18:28.113Z,18.88
2023-04-28T14:20:55.681Z,19.31
2023-04-28T14:23:23.595Z,19.25
2023-04-28T14:25:52.373Z,18.88
2023-04-28T14:28:21.673Z,18.84
2023-04-28T14:30:50.020Z,19.08
2023-04-28T14:33:18.829Z,18.89
2023-04-28T14:35:46.382Z,18.99
2023-04-28T14:38:14.173Z,18.59
2023-04-28T14:40:43.056Z,18.96
2023-04-28T14:43:10.561Z,18.94
2023-04-28T14:45:38.167Z,18.52
2023-04-28T14:48:06.788Z,18.48
2023-04-28T14:50:35.902Z,19.01
2023-04-28T14:53:06.817Z,18.86
2023-04-28T14:55:34.300Z,18.59
2023-04-28T14:58:01.748Z,18.70
2023-04-28T15:00:29.241Z,18.51
2023-04-28T15:02:56.696Z,18.25
2023-04-28T15:05:24.233Z,18.48
2023-04-28T15:07:52.978Z,18.31
2023-04-28T15:10:20.496Z,18.90
2023-04-28T15:12:49.247Z,19.04
2023-04-28T15:15:16.715Z,18.76
2023-04-28T15:17:45.478Z,18.62
2023-04-28T15:20:12.995Z,18.38
2023-04-28T15:22:40.974Z,18.62
2023-04-28T15:25:10.182Z,18.84
2023-04-28T15:27:37.610Z,18.83
2023-04-28T15:30:05.887Z,19.04
2023-04-28T15:32:33.295Z,18.73
2023-04-28T15:35:01.589Z,18.35
2023-04-28T15:37:41.451Z,17.76
2023-04-28T15:40:12.342Z,18.25
2023-04-28T15:42:42.205Z,18.68
2023-04-28T15:45:11.850Z,18.88
2023-04-28T15:47:40.475Z,18.98
2023-04-28T15:50:10.509Z,18.88
2023-04-28T15:52:40.614Z,19.06
2023-04-28T15:55:10.734Z,19.02
2023-04-28T15:57:38.186Z,18.75
2023-04-28T16:00:07.235Z,18.50
2023-04-28T16:02:34.801Z,18.41
2023-04-28T16:05:04.548Z,18.11
2023-04-28T16:07:37.979Z,18.48
2023-04-28T16:10:08.534Z,18.76
2023-04-28T16:12:38.618Z,18.71
2023-04-28T16:15:07.075Z,18.50
2023-04-28T16:17:35.875Z,18.17
2023-04-28T16:20:04.663Z,18.43
2023-04-28T16:22:32.511Z,17.57
2023-04-28T16:25:03.679Z,17.26
2023-04-28T16:27:31.760Z,18.25
2023-04-28T16:30:00.971Z,17.78
2023-04-28T16:32:28.835Z,18.24
2023-04-28T16:34:58.176Z,18.16
2023-04-28T16:37:25.937Z,18.34
2023-04-28T16:39:54.046Z,18.33
2023-04-28T16:42:22.364Z,17.95
2023-04-28T16:44:52.535Z,16.72
2023-04-28T16:47:21.841Z,17.73
2023-04-28T16:49:49.428Z,18.05
2023-04-28T16:52:17.058Z,18.38
2023-04-28T16:54:44.598Z,18.11
2023-04-28T16:57:12.019Z,18.25
2023-04-28T16:59:39.432Z,18.02
2023-04-28T17:02:07.073Z,18.24
2023-04-28T17:04:36.871Z,18.05
2023-04-28T17:07:05.322Z,17.91
2023-04-28T17:09:33.375Z,18.08
2023-04-28T17:12:03.547Z,17.82
2023-04-28T17:14:31.103Z,17.77
2023-04-28T17:16:58.484Z,17.55
2023-04-28T17:19:25.997Z,16.81
2023-04-28T17:21:55.633Z,17.39
2023-04-28T17:24:23.099Z,17.73
2023-04-28T17:26:51.042Z,17.34
2023-04-28T17:29:19.001Z,17.56
2023-04-28T17:31:46.487Z,17.51
2023-04-28T17:34:13.922Z,16.26
2023-04-28T17:36:42.078Z,17.36
2023-04-28T17:39:10.796Z,17.42
2023-04-28T17:41:38.197Z,17.51
2023-04-28T17:44:05.742Z,17.27
2023-04-28T17:46:33.430Z,17.42
2023-04-28T17:49:00.906Z,17.19
2023-04-28T17:51:28.633Z,16.45
2023-04-28T17:53:56.772Z,16.91
2023-04-28T17:56:25.647Z,17.14
2023-04-28T17:58:53.082Z,16.47
2023-04-28T18:01:20.554Z,17.02
2023-04-28T18:03:48.241Z,17.02
2023-04-28T18:06:16.312Z,16.29
2023-04-28T18:08:43.667Z,16.88
2023-04-28T18:11:12.210Z,16.65
2023-04-28T18:13:40.924Z,16.84
2023-04-28T18:16:10.697Z,16.81
2023-04-28T18:18:38.112Z,16.77
2023-04-28T18:21:05.638Z,16.85
2023-04-28T18:23:33.808Z,16.64
2023-04-28T18:26:01.215Z,16.70
2023-04-28T18:28:28.628Z,16.40
2023-04-28T18:30:56.480Z,16.65
2023-04-28T18:33:28.474Z,16.28
2023-04-28T18:36:00.361Z,16.39
2023-04-28T18:38:27.785Z,16.49
2023-04-28T18:40:55.239Z,16.30
2023-04-28T18:43:23.580Z,15.95
2023-04-28T18:45:51.128Z,16.34
2023-04-28T18:48:20.209Z,16.50
2023-04-28T18:50:48.599Z,16.70
2023-04-28T18:53:16.296Z,16.64
2023-04-28T18:55:43.715Z,16.56
2023-04-28T18:58:11.712Z,16.50
2023-04-28T19:00:39.168Z,16.66
2023-04-28T19:03:06.801Z,16.47
2023-04-28T19:05:35.655Z,16.57
2023-04-28T19:08:03.906Z,16.66
2023-04-28T19:10:33.144Z,16.42
2023-04-28T19:13:00.569Z,16.42
2023-04-28T19:15:28.011Z,15.96
2023-04-28T19:17:56.587Z,16.30
2023-04-28T19:20:24.020Z,15.62
2023-04-28T19:22:52.838Z,15.73
2023-04-28T19:25:20.300Z,16.44
2023-04-28T19:27:47.816Z,16.38
2023-04-28T19:30:16.744Z,16.64
2023-04-28T19:32:44.289Z,16.10
2023-04-28T19:35:11.733Z,16.59
2023-04-28T19:37:39.376Z,15.88
2023-04-28T19:40:09.733Z,15.76
2023-04-28T19:42:37.167Z,16.21
2023-04-28T19:45:05.221Z,16.56
2023-04-28T19:47:34.086Z,16.56
2023-04-28T19:50:02.336Z,16.43
2023-04-28T19:52:31.999Z,15.96
2023-04-28T19:55:00.665Z,16.41
2023-04-28T19:57:29.462Z,16.16
2023-04-28T19:59:57.410Z,16.52
2023-04-28T20:02:24.961Z,16.23
2023-04-28T20:04:52.414Z,16.23
2023-04-28T20:07:19.971Z,16.54
2023-04-28T20:09:47.534Z,16.04
2023-04-28T20:12:15.288Z,15.91
2023-04-28T20:14:47.073Z,15.99
2023-04-28T20:17:14.518Z,16.38
2023-04-28T20:19:45.190Z,15.80
2023-04-28T20:22:19.867Z,16.14
2023-04-28T20:24:47.360Z,16.48
2023-04-28T20:27:15.199Z,16.45
2023-04-28T20:29:44.089Z,16.29
2023-04-28T20:32:11.602Z,16.20
2023-04-28T20:34:39.414Z,15.85
2023-04-28T20:37:08.123Z,16.18
2023-04-28T20:39:35.557Z,16.45
2023-04-28T20:42:03.544Z,16.06
2023-04-28T20:44:31.004Z,15.89
2023-04-28T20:47:01.445Z,15.62
2023-04-28T20:49:29.267Z,16.21
2023-04-28T20:52:03.083Z,16.10
2023-04-28T20:54:32.629Z,14.93
2023-04-28T20:57:00.314Z,15.91
2023-04-28T20:59:29.022Z,15.98
2023-04-28T21:01:58.150Z,16.13
2023-04-28T21:04:28.066Z,16.24
2023-04-28T21:06:55.971Z,16.20
2023-04-28T21:09:24.910Z,15.80
2023-04-28T21:11:52.527Z,15.66
2023-04-28T21:14:20.068Z,15.47
2023-04-28T21:16:47.497Z,14.82
2023-04-28T21:19:14.907Z,15.90
2023-04-28T21:21:43.631Z,16.43
2023-04-28T21:24:11.107Z,17.10
2023-04-28T21:26:38.583Z,16.86
2023-04-28T21:29:06.264Z,16.69
2023-04-28T21:31:33.734Z,17.10
2023-04-28T21:34:01.204Z,17.21
2023-04-28T21:36:28.599Z,17.34
2023-04-28T21:38:57.618Z,17.10
2023-04-28T21:41:25.984Z,16.88
2023-04-28T21:43:53.501Z,16.92
2023-04-28T21:46:21.052Z,16.44
2023-04-28T21:48:49.038Z,16.83
2023-04-28T21:51:16.777Z,16.27
2023-04-28T21:53:44.200Z,16.50
2023-04-28T21:56:12.950Z,16.27
2023-04-28T21:58:40.548Z,16.48
2023-04-28T22:01:08.258Z,16.06
2023-04-28T22:03:36.212Z,16.40
2023-04-28T22:06:04.269Z,16.05
2023-04-28T22:08:31.750Z,15.76
2023-04-28T22:10:59.280Z,15.27
2023-04-28T22:13:28.092Z,15.77
2023-04-28T22:15:56.168Z,15.40
2023-04-28T22:18:23.743Z,15.57
2023-04-28T22:20:51.357Z,16.06
2023-04-28T22:23:18.823Z,15.92
2023-04-28T22:25:46.420Z,15.86
2023-04-28T22:28:14.299Z,15.94
2023-04-28T22:30:43.067Z,15.79
2023-04-28T22:33:10.984Z,16.00
2023-04-28T22:35:38.385Z,16.03
2023-04-28T22:38:05.745Z,15.81
2023-04-28T22:40:33.582Z,16.21
2023-04-28T22:43:00.942Z,16.17
2023-04-28T22:45:28.748Z,15.62
2023-04-28T22:47:57.625Z,15.58
2023-04-28T22:50:25.129Z,15.78
2023-04-28T22:52:52.551Z,15.87
2023-04-28T22:55:20.082Z,15.32
2023-04-28T22:57:47.627Z,15.53
2023-04-28T23:00:16.617Z,15.99
2023-04-28T23:02:44.939Z,15.99
2023-04-28T23:05:13.919Z,15.49
2023-04-28T23:07:42.018Z,16.04
2023-04-28T23:10:11.170Z,14.97
2023-04-28T23:12:39.453Z,15.69
2023-04-28T23:15:07.968Z,15.80
2023-04-28T23:17:35.436Z,15.98
2023-04-28T23:20:02.985Z,15.63
2023-04-28T23:22:31.749Z,16.03
2023-04-28T23:24:59.224Z,15.47
2023-04-28T23:27:26.729Z,15.79
2023-04-28T23:29:54.429Z,15.91
2023-04-28T23:32:22.006Z,15.79
2023-04-28T23:34:49.532Z,15.46
2023-04-28T23:37:16.916Z,15.59
2023-04-28T23:39:45.688Z,15.96
2023-04-28T23:42:13.053Z,16.10
2023-04-28T23:44:40.395Z,15.98
2023-04-28T23:47:07.777Z,16.16
2023-04-28T23:49:35.177Z,15.57
2023-04-28T23:52:02.773Z,15.79
2023-04-28T23:54:30.733Z,15.86
2023-04-28T23:56:59.436Z,16.01
2023-04-28T23:59:27.413Z,16.08
